createdAt,value
2023-03-02T00:02:23.898Z,3.40
2023-03-02T00:05:14.610Z,4.53
2023-03-02T00:08:04.055Z,4.53
2023-03-02T00:10:54.576Z,3.17
2023-03-02T00:13:43.260Z,3.93
2023-03-02T00:16:31.037Z,4.87
2023-03-02T00:19:18.855Z,4.13
2023-03-02T00:22:06.735Z,2.80
2023-03-02T00:24:54.151Z,4.33
2023-03-02T00:27:44.611Z,4.57
2023-03-02T00:30:32.253Z,3.87
2023-03-02T00:33:21.017Z,4.53
2023-03-02T00:36:20.692Z,4.00
2023-03-02T00:39:08.767Z,4.80
2023-03-02T00:41:56.325Z,3.93
2023-03-02T00:44:44.166Z,4.40
2023-03-02T00:47:35.572Z,3.60
2023-03-02T00:50:23.619Z,4.20
2023-03-02T00:53:11.718Z,4.27
2023-03-02T00:55:59.695Z,4.03
2023-03-02T00:58:50.329Z,4.53
2023-03-02T01:01:38.811Z,4.23
2023-03-02T01:04:33.689Z,4.57
2023-03-02T01:07:22.341Z,4.97
2023-03-02T01:10:11.341Z,4.37
2023-03-02T01:13:01.384Z,4.10
2023-03-02T01:15:49.466Z,3.07
2023-03-02T01:18:38.908Z,3.90
2023-03-02T01:21:26.430Z,3.80
2023-03-02T01:24:14.025Z,4.50
2023-03-02T01:27:01.671Z,3.83
2023-03-02T01:29:50.777Z,3.60
2023-03-02T01:32:38.509Z,4.37
2023-03-02T01:35:26.142Z,4.63
2023-03-02T01:38:14.478Z,5.00
2023-03-02T01:41:04.523Z,4.57
2023-03-02T01:43:53.444Z,5.97
2023-03-02T01:46:41.261Z,4.30
2023-03-02T01:49:31.216Z,5.40
2023-03-02T01:52:20.314Z,4.43
2023-03-02T01:55:12.984Z,4.60
2023-03-02T01:58:03.570Z,5.70
2023-03-02T02:00:53.225Z,7.83
2023-03-02T02:03:42.278Z,4.80
2023-03-02T02:06:44.696Z,5.80
2023-03-02T02:09:43.648Z,3.73
2023-03-02T02:12:31.364Z,6.57
2023-03-02T02:15:18.826Z,4.90
2023-03-02T02:18:07.303Z,6.27
2023-03-02T02:20:58.280Z,4.87
2023-03-02T02:24:10.238Z,6.43
2023-03-02T02:27:01.387Z,4.77
2023-03-02T02:29:52.828Z,6.70
2023-03-02T02:32:43.599Z,5.17
2023-03-02T02:35:36.612Z,5.73
2023-03-02T02:38:25.862Z,4.97
2023-03-02T02:41:30.667Z,6.43
2023-03-02T02:44:19.765Z,6.50
2023-03-02T02:47:21.827Z,6.03
2023-03-02T02:50:25.540Z,5.47
2023-03-02T02:53:21.158Z,5.33
2023-03-02T02:56:10.738Z,5.73
2023-03-02T02:59:32.682Z,5.73
2023-03-02T03:02:25.782Z,4.93
2023-03-02T03:05:17.902Z,7.53
2023-03-02T03:08:11.080Z,5.50
2023-03-02T03:10:59.871Z,7.60
2023-03-02T03:13:48.069Z,8.00
2023-03-02T03:16:39.345Z,7.10
2023-03-02T03:19:31.380Z,4.97
2023-03-02T03:22:18.938Z,6.80
2023-03-02T03:25:07.210Z,7.00
2023-03-02T03:27:54.711Z,6.20
2023-03-02T03:30:42.404Z,7.40
2023-03-02T03:33:29.958Z,7.23
2023-03-02T03:36:18.437Z,6.83
2023-03-02T03:39:07.055Z,5.80
2023-03-02T03:41:54.528Z,4.83
2023-03-02T03:44:42.304Z,7.03
2023-03-02T03:47:30.164Z,7.10
2023-03-02T03:50:18.215Z,6.17
2023-03-02T03:53:06.067Z,6.80
2023-03-02T03:55:55.515Z,5.40
2023-03-02T03:58:43.223Z,5.37
2023-03-02T04:01:44.195Z,13.43
2023-03-02T04:04:35.487Z,8.10
2023-03-02T04:07:23.051Z,7.97
2023-03-02T04:10:12.504Z,7.30
2023-03-02T04:13:00.154Z,7.20
2023-03-02T04:15:47.688Z,7.27
2023-03-02T04:18:35.296Z,7.13
2023-03-02T04:21:24.053Z,8.47
2023-03-02T04:24:13.939Z,8.30
2023-03-02T04:27:01.451Z,8.03
2023-03-02T04:29:48.959Z,8.73
2023-03-02T04:32:38.979Z,6.47
2023-03-02T04:35:26.778Z,7.83
2023-03-02T04:38:14.315Z,7.40
2023-03-02T04:41:01.946Z,8.47
2023-03-02T04:43:50.159Z,10.07
2023-03-02T04:46:38.314Z,7.63
2023-03-02T04:49:25.936Z,7.00
2023-03-02T04:52:13.363Z,7.80
2023-03-02T04:55:00.925Z,8.33
2023-03-02T04:57:49.784Z,6.70
2023-03-02T05:00:37.856Z,7.80
2023-03-02T05:03:25.479Z,6.70
2023-03-02T05:06:14.134Z,9.17
2023-03-02T05:09:02.001Z,9.90
2023-03-02T05:11:49.485Z,8.77
2023-03-02T05:14:37.009Z,8.60
2023-03-02T05:17:24.442Z,7.87
2023-03-02T05:20:13.068Z,6.83
2023-03-02T05:23:26.079Z,7.27
2023-03-02T05:26:14.704Z,5.47
2023-03-02T05:29:02.308Z,10.20
2023-03-02T05:31:50.483Z,6.07
2023-03-02T05:34:38.103Z,9.77
2023-03-02T05:37:25.560Z,8.10
2023-03-02T05:40:20.495Z,7.10
2023-03-02T05:43:08.803Z,6.13
2023-03-02T05:46:00.606Z,7.63
2023-03-02T05:48:48.433Z,5.80
2023-03-02T05:51:36.637Z,8.27
2023-03-02T05:54:24.265Z,9.53
2023-03-02T05:57:12.747Z,6.20
2023-03-02T06:00:00.879Z,7.17
2023-03-02T06:02:49.259Z,8.03
2023-03-02T06:05:38.717Z,7.17
2023-03-02T06:08:26.314Z,9.00
2023-03-02T06:11:14.104Z,10.27
2023-03-02T06:14:01.902Z,9.20
2023-03-02T06:16:49.699Z,8.13
2023-03-02T06:19:37.528Z,8.70
2023-03-02T06:22:27.652Z,8.03
2023-03-02T06:25:20.873Z,8.87
2023-03-02T06:28:08.493Z,8.03
2023-03-02T06:31:00.567Z,7.00
2023-03-02T06:33:48.295Z,10.23
2023-03-02T06:36:38.846Z,7.83
2023-03-02T06:39:26.976Z,7.40
2023-03-02T06:42:14.706Z,8.77
2023-03-02T06:45:02.429Z,8.37
2023-03-02T06:47:49.926Z,7.77
2023-03-02T06:50:38.878Z,6.57
2023-03-02T06:53:26.521Z,8.70
2023-03-02T06:56:14.002Z,7.47
2023-03-02T06:59:01.522Z,8.27
2023-03-02T07:01:50.658Z,9.93
2023-03-02T07:04:38.734Z,7.10
2023-03-02T07:07:26.419Z,8.80
2023-03-02T07:10:14.527Z,8.83
2023-03-02T07:13:03.871Z,6.30
2023-03-02T07:15:51.452Z,9.33
2023-03-02T07:18:39.901Z,9.83
2023-03-02T07:21:27.681Z,8.30
2023-03-02T07:24:15.150Z,8.87
2023-03-02T07:27:05.519Z,7.20
2023-03-02T07:29:53.113Z,7.10
2023-03-02T07:32:41.179Z,9.97
2023-03-02T07:35:28.779Z,8.70
2023-03-02T07:38:16.656Z,8.73
2023-03-02T07:41:09.294Z,9.33
2023-03-02T07:43:56.776Z,9.20
2023-03-02T07:46:44.473Z,7.77
2023-03-02T07:49:32.244Z,6.17
2023-03-02T07:52:19.742Z,11.07
2023-03-02T07:55:07.723Z,8.33
2023-03-02T07:57:55.429Z,8.13
2023-03-02T08:00:43.027Z,8.17
2023-03-02T08:03:30.644Z,7.80
2023-03-02T08:06:18.373Z,8.13
2023-03-02T08:09:06.127Z,6.83
2023-03-02T08:11:53.827Z,10.03
2023-03-02T08:14:42.255Z,7.37
2023-03-02T08:17:29.910Z,8.20
2023-03-02T08:20:17.907Z,6.30
2023-03-02T08:23:05.666Z,8.23
2023-03-02T08:25:55.292Z,6.83
2023-03-02T08:28:43.128Z,8.60
2023-03-02T08:31:31.549Z,8.97
2023-03-02T08:34:19.519Z,8.00
2023-03-02T08:37:07.192Z,7.63
2023-03-02T08:39:58.714Z,7.87
2023-03-02T08:42:46.913Z,7.10
2023-03-02T08:45:35.154Z,7.73
2023-03-02T08:48:23.713Z,6.30
2023-03-02T08:51:16.331Z,8.57
2023-03-02T08:54:04.493Z,7.27
2023-03-02T08:56:52.005Z,6.60
2023-03-02T08:59:39.852Z,7.10
2023-03-02T09:02:27.590Z,7.03
2023-03-02T09:05:15.977Z,7.67
2023-03-02T09:08:05.198Z,7.30
2023-03-02T09:10:53.895Z,6.23
2023-03-02T09:13:41.697Z,7.20
2023-03-02T09:16:30.450Z,5.90
2023-03-02T09:19:18.241Z,7.77
2023-03-02T09:22:05.813Z,6.07
2023-03-02T09:24:53.430Z,8.47
2023-03-02T09:27:41.710Z,6.33
2023-03-02T09:30:29.298Z,8.77
2023-03-02T09:33:18.640Z,6.93
2023-03-02T09:36:09.566Z,7.47
2023-03-02T09:38:57.364Z,7.73
2023-03-02T09:42:25.392Z,5.97
2023-03-02T09:45:55.352Z,8.37
2023-03-02T09:49:18.212Z,5.93
2023-03-02T09:52:46.261Z,5.73
2023-03-02T09:55:37.196Z,5.43
2023-03-02T09:58:31.669Z,5.53
2023-03-02T10:01:38.416Z,6.63
2023-03-02T10:04:32.140Z,5.40
2023-03-02T10:07:40.234Z,7.43
2023-03-02T10:10:47.363Z,5.80
2023-03-02T10:13:53.688Z,4.80
2023-03-02T10:17:19.367Z,5.43
2023-03-02T10:20:37.544Z,7.00
2023-03-02T10:24:16.653Z,5.70
2023-03-02T10:27:34.163Z,4.43
2023-03-02T10:30:35.598Z,6.73
2023-03-02T10:33:24.052Z,5.43
2023-03-02T10:36:27.347Z,6.17
2023-03-02T10:39:17.862Z,5.10
2023-03-02T10:42:29.876Z,4.87
2023-03-02T10:45:33.025Z,4.53
2023-03-02T10:48:20.447Z,4.43
2023-03-02T10:51:27.987Z,5.00
2023-03-02T10:54:17.042Z,6.20
2023-03-02T10:57:28.548Z,4.47
2023-03-02T11:00:22.342Z,4.70
2023-03-02T11:03:27.091Z,4.80
2023-03-02T11:06:22.783Z,4.10
2023-03-02T11:09:15.379Z,3.83
2023-03-02T11:12:02.945Z,4.30
2023-03-02T11:15:21.661Z,4.83
2023-03-02T11:18:42.435Z,3.53
2023-03-02T11:21:51.541Z,3.57
2023-03-02T11:24:51.938Z,4.37
2023-03-02T11:27:44.657Z,4.70
2023-03-02T11:30:41.932Z,3.50
2023-03-02T11:34:17.597Z,2.97
2023-03-02T11:37:39.043Z,3.23
2023-03-02T11:40:50.432Z,3.77
2023-03-02T11:43:38.027Z,3.17
2023-03-02T11:46:33.477Z,3.90
2023-03-02T11:49:32.457Z,6.07
2023-03-02T11:52:27.464Z,3.57
2023-03-02T11:55:20.332Z,4.37
2023-03-02T11:58:17.276Z,2.97
2023-03-02T12:01:11.098Z,6.27
2023-03-02T12:04:32.546Z,5.00
2023-03-02T12:07:27.262Z,4.43
2023-03-02T12:10:39.321Z,3.93
2023-03-02T12:13:35.461Z,4.60
2023-03-02T12:16:38.152Z,4.40
2023-03-02T12:19:29.263Z,3.77
2023-03-02T12:22:28.875Z,4.07
2023-03-02T12:25:19.696Z,4.37
2023-03-02T12:28:29.379Z,3.77
2023-03-02T12:31:19.962Z,2.83
2023-03-02T12:34:33.946Z,4.33
2023-03-02T12:37:47.484Z,4.27
2023-03-02T12:41:10.222Z,3.80
2023-03-02T12:44:55.723Z,3.93
2023-03-02T12:47:50.344Z,4.27
2023-03-02T12:50:41.103Z,3.20
2023-03-02T12:53:32.241Z,3.10
2023-03-02T12:56:27.724Z,3.17
2023-03-02T12:59:28.632Z,4.03
2023-03-02T13:02:27.487Z,3.20
2023-03-02T13:05:25.149Z,3.30
2023-03-02T13:08:31.201Z,4.63
2023-03-02T13:11:37.821Z,2.90
2023-03-02T13:14:28.727Z,3.20
2023-03-02T13:17:36.755Z,3.70
2023-03-02T13:20:29.536Z,2.90
2023-03-02T13:23:19.404Z,5.23
2023-03-02T13:26:06.836Z,3.23
2023-03-02T13:29:19.684Z,3.97
2023-03-02T13:32:26.411Z,3.80
2023-03-02T13:35:27.718Z,3.23
2023-03-02T13:38:26.566Z,3.83
2023-03-02T13:41:33.448Z,3.43
2023-03-02T13:44:28.662Z,3.67
2023-03-02T13:47:25.091Z,4.13
2023-03-02T13:50:25.988Z,3.10
2023-03-02T13:53:13.687Z,3.67
2023-03-02T13:56:01.500Z,3.83
2023-03-02T13:58:49.190Z,4.07
2023-03-02T14:01:38.277Z,4.40
2023-03-02T14:04:26.033Z,4.83
2023-03-02T14:07:13.481Z,3.97
2023-03-02T14:10:00.996Z,4.57
2023-03-02T14:13:03.577Z,4.40
2023-03-02T14:15:53.957Z,4.80
2023-03-02T14:18:49.455Z,4.37
2023-03-02T14:21:37.204Z,4.40
2023-03-02T14:24:24.828Z,4.13
2023-03-02T14:27:16.166Z,4.00
2023-03-02T14:30:16.540Z,4.37
2023-03-02T14:33:04.008Z,5.37
2023-03-02T14:35:58.985Z,4.33
2023-03-02T14:38:49.732Z,4.70
2023-03-02T14:41:52.445Z,5.53
2023-03-02T14:44:46.653Z,5.17
2023-03-02T14:47:34.107Z,4.33
2023-03-02T14:50:21.664Z,5.27
2023-03-02T14:53:20.435Z,5.83
2023-03-02T14:56:12.025Z,5.53
2023-03-02T14:59:00.806Z,5.03
2023-03-02T15:01:48.351Z,4.83
2023-03-02T15:04:35.911Z,4.93
2023-03-02T15:07:27.042Z,4.33
2023-03-02T15:10:19.049Z,3.93
2023-03-02T15:13:06.788Z,4.80
2023-03-02T15:15:54.391Z,4.57
2023-03-02T15:18:42.556Z,7.70
2023-03-02T15:21:30.093Z,5.23
2023-03-02T15:24:17.671Z,4.83
2023-03-02T15:27:05.610Z,3.87
2023-03-02T15:29:55.792Z,4.40
2023-03-02T15:32:44.339Z,4.60
2023-03-02T15:35:38.720Z,4.77
2023-03-02T15:38:26.480Z,5.10
2023-03-02T15:41:15.499Z,4.70
2023-03-02T15:44:03.235Z,3.90
2023-03-02T15:46:56.417Z,4.73
2023-03-02T15:49:44.291Z,4.97
2023-03-02T15:52:34.830Z,5.97
2023-03-02T15:55:22.352Z,3.93
2023-03-02T15:58:10.868Z,6.23
2023-03-02T16:00:58.537Z,4.63
2023-03-02T16:03:46.204Z,5.10
2023-03-02T16:06:34.098Z,4.43
2023-03-02T16:09:23.740Z,5.17
2023-03-02T16:12:11.334Z,5.37
2023-03-02T16:15:01.731Z,5.47
2023-03-02T16:17:49.402Z,3.93
2023-03-02T16:20:39.077Z,4.50
2023-03-02T16:23:26.742Z,4.00
2023-03-02T16:26:19.560Z,4.00
2023-03-02T16:29:10.618Z,4.50
2023-03-02T16:31:58.284Z,4.30
2023-03-02T16:34:45.917Z,5.17
2023-03-02T16:37:33.770Z,4.20
2023-03-02T16:40:22.238Z,5.57
2023-03-02T16:43:11.027Z,5.00
2023-03-02T16:46:00.052Z,4.93
2023-03-02T16:48:49.981Z,5.77
2023-03-02T16:51:38.717Z,4.73
2023-03-02T16:54:26.906Z,4.13
2023-03-02T16:57:14.478Z,5.47
2023-03-02T17:00:02.060Z,5.67
2023-03-02T17:02:50.715Z,4.30
2023-03-02T17:05:42.673Z,4.53
2023-03-02T17:08:30.213Z,4.60
2023-03-02T17:11:18.835Z,5.80
2023-03-02T17:14:06.409Z,5.50
2023-03-02T17:16:54.825Z,4.43
2023-03-02T17:19:42.367Z,4.20
2023-03-02T17:22:29.875Z,5.37
2023-03-02T17:25:21.332Z,4.40
2023-03-02T17:28:09.355Z,3.73
2023-03-02T17:30:57.407Z,5.87
2023-03-02T17:33:45.301Z,5.63
2023-03-02T17:36:36.554Z,5.37
2023-03-02T17:39:24.469Z,5.23
2023-03-02T17:42:12.104Z,5.03
2023-03-02T17:45:02.246Z,4.73
2023-03-02T17:47:52.900Z,4.73
2023-03-02T17:50:40.650Z,5.37
2023-03-02T17:53:28.359Z,5.03
2023-03-02T17:56:19.765Z,4.97
2023-03-02T17:59:07.589Z,4.37
2023-03-02T18:01:55.645Z,4.87
2023-03-02T18:04:44.970Z,4.63
2023-03-02T18:07:32.471Z,4.50
2023-03-02T18:10:20.083Z,3.63
2023-03-02T18:13:07.755Z,5.20
2023-03-02T18:15:55.595Z,4.70
2023-03-02T18:18:43.150Z,3.77
2023-03-02T18:21:30.941Z,3.53
2023-03-02T18:24:18.564Z,4.07
2023-03-02T18:27:06.546Z,4.07
2023-03-02T18:29:54.032Z,5.00
2023-03-02T18:32:41.944Z,5.47
2023-03-02T18:35:29.415Z,4.50
2023-03-02T18:38:16.963Z,4.97
2023-03-02T18:41:07.142Z,4.70
2023-03-02T18:43:54.764Z,5.20
2023-03-02T18:46:42.471Z,4.73
2023-03-02T18:49:30.571Z,5.17
2023-03-02T18:52:19.407Z,5.47
2023-03-02T18:55:09.073Z,4.07
2023-03-02T18:57:56.541Z,4.17
2023-03-02T19:00:45.862Z,5.47
2023-03-02T19:03:35.483Z,5.20
2023-03-02T19:06:23.363Z,4.50
2023-03-02T19:09:11.571Z,4.83
2023-03-02T19:11:59.666Z,4.47
2023-03-02T19:14:47.847Z,4.07
2023-03-02T19:17:35.438Z,4.33
2023-03-02T19:20:23.489Z,3.40
2023-03-02T19:23:11.166Z,4.87
2023-03-02T19:25:59.958Z,4.03
2023-03-02T19:28:47.466Z,3.43
2023-03-02T19:31:39.066Z,4.57
2023-03-02T19:34:26.701Z,2.90
2023-03-02T19:37:14.908Z,3.70
2023-03-02T19:40:02.568Z,3.77
2023-03-02T19:42:51.789Z,3.93
2023-03-02T19:45:39.347Z,3.67
2023-03-02T19:48:27.077Z,3.30
2023-03-02T19:51:16.013Z,3.17
2023-03-02T19:54:04.315Z,4.00
2023-03-02T19:56:54.328Z,3.87
2023-03-02T19:59:45.284Z,3.83
2023-03-02T20:02:35.957Z,3.37
2023-03-02T20:05:26.298Z,3.27
2023-03-02T20:08:16.830Z,3.00
2023-03-02T20:11:04.528Z,3.30
2023-03-02T20:13:53.529Z,3.20
2023-03-02T20:16:42.205Z,3.77
2023-03-02T20:19:29.745Z,4.30
2023-03-02T20:22:17.285Z,3.30
2023-03-02T20:25:06.056Z,3.33
2023-03-02T20:27:54.620Z,3.03
2023-03-02T20:30:56.728Z,3.30
2023-03-02T20:33:52.229Z,3.97
2023-03-02T20:36:40.346Z,2.60
2023-03-02T20:39:32.803Z,3.63
2023-03-02T20:42:24.001Z,4.23
2023-03-02T20:45:13.175Z,3.63
2023-03-02T20:48:01.387Z,3.57
2023-03-02T20:50:51.526Z,4.00
2023-03-02T20:53:39.274Z,3.43
2023-03-02T20:56:27.186Z,3.77
2023-03-02T20:59:16.332Z,3.60
2023-03-02T21:02:07.874Z,4.17
2023-03-02T21:04:55.572Z,3.57
2023-03-02T21:07:44.779Z,3.57
2023-03-02T21:10:38.069Z,4.03
2023-03-02T21:13:26.408Z,5.37
2023-03-02T21:16:26.647Z,3.03
2023-03-02T21:19:18.962Z,3.40
2023-03-02T21:22:09.201Z,5.07
2023-03-02T21:24:57.211Z,4.27
2023-03-02T21:27:45.777Z,4.77
2023-03-02T21:30:34.999Z,3.67
2023-03-02T21:33:22.527Z,3.27
2023-03-02T21:36:27.034Z,4.03
2023-03-02T21:39:14.660Z,4.87
2023-03-02T21:42:02.741Z,4.77
2023-03-02T21:44:50.470Z,4.23
2023-03-02T21:47:41.348Z,4.17
2023-03-02T21:50:34.096Z,3.57
2023-03-02T21:53:21.662Z,4.73
2023-03-02T21:56:12.721Z,4.20
2023-03-02T21:59:00.383Z,3.20
2023-03-02T22:01:48.205Z,4.20
2023-03-02T22:04:36.018Z,4.23
2023-03-02T22:07:23.653Z,3.90
2023-03-02T22:10:46.356Z,4.83
2023-03-02T22:13:34.542Z,4.53
2023-03-02T22:16:33.007Z,4.00
2023-03-02T22:19:33.695Z,4.87
2023-03-02T22:22:31.392Z,4.43
2023-03-02T22:25:19.528Z,5.00
2023-03-02T22:28:23.925Z,4.40
2023-03-02T22:31:21.767Z,4.43
2023-03-02T22:34:21.379Z,3.57
2023-03-02T22:37:17.608Z,4.40
2023-03-02T22:40:35.068Z,3.57
2023-03-02T22:43:31.213Z,4.87
2023-03-02T22:46:27.009Z,3.70
2023-03-02T22:49:17.898Z,3.60
2023-03-02T22:52:17.541Z,5.37
2023-03-02T22:55:28.342Z,4.73
2023-03-02T22:58:39.788Z,2.70
2023-03-02T23:01:39.515Z,2.53
2023-03-02T23:04:48.999Z,3.37
2023-03-02T23:07:37.502Z,3.57
2023-03-02T23:10:25.050Z,3.80
2023-03-02T23:13:17.702Z,3.30
2023-03-02T23:16:23.880Z,5.30
2023-03-02T23:19:11.843Z,3.60
2023-03-02T23:21:59.697Z,3.13
2023-03-02T23:24:47.371Z,3.20
2023-03-02T23:27:35.342Z,3.40
2023-03-02T23:30:23.209Z,4.43
2023-03-02T23:33:10.762Z,4.07
2023-03-02T23:35:58.538Z,5.67
2023-03-02T23:38:46.351Z,2.83
2023-03-02T23:41:35.124Z,3.90
2023-03-02T23:44:22.630Z,3.17
2023-03-02T23:47:10.270Z,3.73
2023-03-02T23:49:57.775Z,3.97
2023-03-02T23:52:45.624Z,4.07
2023-03-02T23:55:35.294Z,5.63
2023-03-02T23:58:23.995Z,4.30
